sensor_id;sensor_type;location;lat;lon;timestamp;P1;durP1;ratioP1;P2;durP2;ratioP2
13481;SDS011;6813;60.352;15.746;2022-12-18T00:01:40;4.87;;;3.17;;
13481;SDS011;6813;60.352;15.746;2022-12-18T00:04:07;5.20;;;3.33;;
13481;SDS011;6813;60.352;15.746;2022-12-18T00:06:40;5.67;;;3.30;;
13481;SDS011;6813;60.352;15.746;2022-12-18T00:09:05;4.67;;;2.60;;
13481;SDS011;6813;60.352;15.746;2022-12-18T00:11:31;3.17;;;2.80;;
13481;SDS011;6813;60.352;15.746;2022-12-18T00:13:57;7.47;;;3.33;;
13481;SDS011;6813;60.352;15.746;2022-12-18T00:16:25;4.57;;;2.60;;
13481;SDS011;6813;60.352;15.746;2022-12-18T00:18:53;4.30;;;3.23;;
13481;SDS011;6813;60.352;15.746;2022-12-18T00:21:20;6.77;;;3.10;;
13481;SDS011;6813;60.352;15.746;2022-12-18T00:23:46;4.60;;;2.83;;
13481;SDS011;6813;60.352;15.746;2022-12-18T00:26:14;3.77;;;3.00;;
13481;SDS011;6813;60.352;15.746;2022-12-18T00:28:44;4.50;;;2.80;;
13481;SDS011;6813;60.352;15.746;2022-12-18T00:31:12;5.63;;;2.90;;
13481;SDS011;6813;60.352;15.746;2022-12-18T00:33:43;3.90;;;2.87;;
13481;SDS011;6813;60.352;15.746;2022-12-18T00:36:10;3.53;;;2.73;;
13481;SDS011;6813;60.352;15.746;2022-12-18T00:38:37;2.73;;;2.43;;
13481;SDS011;6813;60.352;15.746;2022-12-18T00:41:03;4.43;;;2.87;;
13481;SDS011;6813;60.352;15.746;2022-12-18T00:43:30;4.40;;;2.77;;
13481;SDS011;6813;60.352;15.746;2022-12-18T00:45:58;4.37;;;2.90;;
13481;SDS011;6813;60.352;15.746;2022-12-18T00:48:24;4.43;;;3.43;;
13481;SDS011;6813;60.352;15.746;2022-12-18T00:50:50;4.43;;;3.30;;
13481;SDS011;6813;60.352;15.746;2022-12-18T00:53:16;3.80;;;3.10;;
13481;SDS011;6813;60.352;15.746;2022-12-18T00:55:43;3.87;;;2.73;;
13481;SDS011;6813;60.352;15.746;2022-12-18T00:58:12;4.83;;;3.00;;
13481;SDS011;6813;60.352;15.746;2022-12-18T01:00:38;2.77;;;2.27;;
13481;SDS011;6813;60.352;15.746;2022-12-18T01:03:04;3.70;;;2.97;;
13481;SDS011;6813;60.352;15.746;2022-12-18T01:05:30;3.30;;;3.00;;
13481;SDS011;6813;60.352;15.746;2022-12-18T01:07:56;3.20;;;2.60;;
13481;SDS011;6813;60.352;15.746;2022-12-18T01:10:22;3.97;;;3.07;;
13481;SDS011;6813;60.352;15.746;2022-12-18T01:12:49;4.63;;;3.10;;
13481;SDS011;6813;60.352;15.746;2022-12-18T01:15:15;3.93;;;3.00;;
13481;SDS011;6813;60.352;15.746;2022-12-18T01:17:42;3.10;;;2.60;;
13481;SDS011;6813;60.352;15.746;2022-12-18T01:20:08;3.07;;;2.43;;
13481;SDS011;6813;60.352;15.746;2022-12-18T01:22:35;4.17;;;3.20;;
13481;SDS011;6813;60.352;15.746;2022-12-18T01:25:01;2.93;;;2.63;;
13481;SDS011;6813;60.352;15.746;2022-12-18T01:27:28;3.57;;;2.80;;
13481;SDS011;6813;60.352;15.746;2022-12-18T01:29:53;4.20;;;3.30;;
13481;SDS011;6813;60.352;15.746;2022-12-18T01:32:19;5.37;;;3.27;;
13481;SDS011;6813;60.352;15.746;2022-12-18T01:34:45;3.03;;;2.60;;
13481;SDS011;6813;60.352;15.746;2022-12-18T01:37:11;4.77;;;2.87;;
13481;SDS011;6813;60.352;15.746;2022-12-18T01:39:36;4.47;;;3.10;;
13481;SDS011;6813;60.352;15.746;2022-12-18T01:42:02;3.37;;;2.60;;
13481;SDS011;6813;60.352;15.746;2022-12-18T01:47:55;5.63;;;3.47;;
13481;SDS011;6813;60.352;15.746;2022-12-18T01:50:06;4.40;;;2.53;;
13481;SDS011;6813;60.352;15.746;2022-12-18T01:52:39;5.17;;;3.57;;
13481;SDS011;6813;60.352;15.746;2022-12-18T01:55:08;3.97;;;3.00;;
13481;SDS011;6813;60.352;15.746;2022-12-18T01:57:36;3.57;;;2.80;;
13481;SDS011;6813;60.352;15.746;2022-12-18T02:00:10;4.43;;;3.00;;
13481;SDS011;6813;60.352;15.746;2022-12-18T02:02:39;4.07;;;3.17;;
13481;SDS011;6813;60.352;15.746;2022-12-18T02:05:06;5.37;;;3.10;;
13481;SDS011;6813;60.352;15.746;2022-12-18T02:07:37;3.73;;;2.40;;
13481;SDS011;6813;60.352;15.746;2022-12-18T02:10:14;5.67;;;3.60;;
13481;SDS011;6813;60.352;15.746;2022-12-18T02:12:53;5.87;;;3.47;;
13481;SDS011;6813;60.352;15.746;2022-12-18T02:15:26;5.93;;;3.20;;
13481;SDS011;6813;60.352;15.746;2022-12-18T02:18:10;5.13;;;3.90;;
13481;SDS011;6813;60.352;15.746;2022-12-18T02:20:54;5.97;;;3.60;;
13481;SDS011;6813;60.352;15.746;2022-12-18T02:28:34;7.07;;;3.67;;
13481;SDS011;6813;60.352;15.746;2022-12-18T02:31:22;6.10;;;3.70;;
13481;SDS011;6813;60.352;15.746;2022-12-18T02:33:52;4.90;;;3.60;;
13481;SDS011;6813;60.352;15.746;2022-12-18T02:36:23;5.93;;;3.40;;
13481;SDS011;6813;60.352;15.746;2022-12-18T02:38:51;4.33;;;3.10;;
13481;SDS011;6813;60.352;15.746;2022-12-18T02:41:18;5.00;;;3.10;;
13481;SDS011;6813;60.352;15.746;2022-12-18T02:43:46;4.57;;;3.43;;
13481;SDS011;6813;60.352;15.746;2022-12-18T02:46:24;6.53;;;3.63;;
13481;SDS011;6813;60.352;15.746;2022-12-18T02:48:50;6.70;;;3.53;;
13481;SDS011;6813;60.352;15.746;2022-12-18T02:51:31;4.17;;;3.00;;
13481;SDS011;6813;60.352;15.746;2022-12-18T02:54:06;4.53;;;3.23;;
13481;SDS011;6813;60.352;15.746;2022-12-18T02:56:40;4.80;;;3.07;;
13481;SDS011;6813;60.352;15.746;2022-12-18T02:59:15;4.60;;;2.73;;
13481;SDS011;6813;60.352;15.746;2022-12-18T03:02:08;5.67;;;3.00;;
13481;SDS011;6813;60.352;15.746;2022-12-18T03:04:57;5.77;;;3.10;;
13481;SDS011;6813;60.352;15.746;2022-12-18T03:07:38;2.83;;;2.50;;
13481;SDS011;6813;60.352;15.746;2022-12-18T03:10:16;3.77;;;2.80;;
13481;SDS011;6813;60.352;15.746;2022-12-18T03:12:51;4.60;;;2.90;;
13481;SDS011;6813;60.352;15.746;2022-12-18T03:15:25;5.10;;;2.80;;
13481;SDS011;6813;60.352;15.746;2022-12-18T03:17:57;3.30;;;2.23;;
13481;SDS011;6813;60.352;15.746;2022-12-18T03:20:28;3.80;;;3.07;;
13481;SDS011;6813;60.352;15.746;2022-12-18T03:23:02;3.30;;;2.67;;
13481;SDS011;6813;60.352;15.746;2022-12-18T03:25:33;4.13;;;3.13;;
13481;SDS011;6813;60.352;15.746;2022-12-18T03:28:03;2.90;;;2.60;;
13481;SDS011;6813;60.352;15.746;2022-12-18T03:30:33;3.83;;;2.83;;
13481;SDS011;6813;60.352;15.746;2022-12-18T03:33:10;2.83;;;2.30;;
13481;SDS011;6813;60.352;15.746;2022-12-18T03:35:42;3.73;;;2.43;;
13481;SDS011;6813;60.352;15.746;2022-12-18T03:38:09;3.03;;;2.43;;
13481;SDS011;6813;60.352;15.746;2022-12-18T03:46:07;4.00;;;2.60;;
13481;SDS011;6813;60.352;15.746;2022-12-18T03:48:41;3.03;;;2.40;;
13481;SDS011;6813;60.352;15.746;2022-12-18T03:51:15;2.77;;;1.77;;
13481;SDS011;6813;60.352;15.746;2022-12-18T03:53:50;2.57;;;2.17;;
13481;SDS011;6813;60.352;15.746;2022-12-18T03:56:25;2.57;;;2.30;;
13481;SDS011;6813;60.352;15.746;2022-12-18T03:58:53;2.47;;;2.13;;
13481;SDS011;6813;60.352;15.746;2022-12-18T04:01:22;2.43;;;1.90;;
13481;SDS011;6813;60.352;15.746;2022-12-18T04:03:52;2.97;;;2.23;;
13481;SDS011;6813;60.352;15.746;2022-12-18T04:06:18;2.73;;;1.93;;
13481;SDS011;6813;60.352;15.746;2022-12-18T04:08:45;2.87;;;2.30;;
13481;SDS011;6813;60.352;15.746;2022-12-18T04:11:11;2.70;;;2.00;;
13481;SDS011;6813;60.352;15.746;2022-12-18T04:13:37;2.57;;;2.30;;
13481;SDS011;6813;60.352;15.746;2022-12-18T04:16:03;2.40;;;1.93;;
13481;SDS011;6813;60.352;15.746;2022-12-18T04:18:29;1.80;;;1.70;;
13481;SDS011;6813;60.352;15.746;2022-12-18T04:20:55;1.93;;;1.47;;
13481;SDS011;6813;60.352;15.746;2022-12-18T04:23:21;2.03;;;1.63;;
13481;SDS011;6813;60.352;15.746;2022-12-18T04:25:47;2.00;;;1.67;;
13481;SDS011;6813;60.352;15.746;2022-12-18T04:28:13;2.13;;;1.60;;
13481;SDS011;6813;60.352;15.746;2022-12-18T04:30:39;2.37;;;1.77;;
13481;SDS011;6813;60.352;15.746;2022-12-18T04:33:08;1.53;;;1.40;;
13481;SDS011;6813;60.352;15.746;2022-12-18T04:35:38;1.50;;;1.30;;
13481;SDS011;6813;60.352;15.746;2022-12-18T04:38:05;3.03;;;1.97;;
13481;SDS011;6813;60.352;15.746;2022-12-18T04:40:36;1.00;;;0.97;;
13481;SDS011;6813;60.352;15.746;2022-12-18T04:43:02;2.17;;;1.60;;
13481;SDS011;6813;60.352;15.746;2022-12-18T04:45:29;2.83;;;1.73;;
13481;SDS011;6813;60.352;15.746;2022-12-18T04:47:56;2.93;;;2.00;;
13481;SDS011;6813;60.352;15.746;2022-12-18T04:50:22;2.03;;;1.83;;
13481;SDS011;6813;60.352;15.746;2022-12-18T04:52:48;8.23;;;5.63;;
13481;SDS011;6813;60.352;15.746;2022-12-18T04:55:14;4.23;;;3.27;;
13481;SDS011;6813;60.352;15.746;2022-12-18T04:57:40;1.73;;;1.63;;
13481;SDS011;6813;60.352;15.746;2022-12-18T05:00:05;1.80;;;1.23;;
13481;SDS011;6813;60.352;15.746;2022-12-18T05:02:32;2.30;;;1.67;;
13481;SDS011;6813;60.352;15.746;2022-12-18T05:04:57;4.57;;;2.50;;
13481;SDS011;6813;60.352;15.746;2022-12-18T05:07:23;1.93;;;1.73;;
13481;SDS011;6813;60.352;15.746;2022-12-18T05:09:49;1.60;;;1.50;;
13481;SDS011;6813;60.352;15.746;2022-12-18T05:12:15;1.57;;;1.40;;
13481;SDS011;6813;60.352;15.746;2022-12-18T05:14:40;1.93;;;1.73;;
13481;SDS011;6813;60.352;15.746;2022-12-18T05:17:06;3.03;;;1.77;;
13481;SDS011;6813;60.352;15.746;2022-12-18T05:19:32;2.97;;;1.40;;
13481;SDS011;6813;60.352;15.746;2022-12-18T05:21:58;1.57;;;1.30;;
13481;SDS011;6813;60.352;15.746;2022-12-18T05:24:23;1.53;;;1.43;;
13481;SDS011;6813;60.352;15.746;2022-12-18T05:26:49;2.83;;;1.40;;
13481;SDS011;6813;60.352;15.746;2022-12-18T05:29:15;2.07;;;1.77;;
13481;SDS011;6813;60.352;15.746;2022-12-18T05:31:40;2.13;;;1.67;;
13481;SDS011;6813;60.352;15.746;2022-12-18T05:34:06;2.40;;;1.47;;
13481;SDS011;6813;60.352;15.746;2022-12-18T05:36:32;1.73;;;1.57;;
13481;SDS011;6813;60.352;15.746;2022-12-18T05:38:57;1.43;;;1.30;;
13481;SDS011;6813;60.352;15.746;2022-12-18T05:41:25;1.43;;;1.00;;
13481;SDS011;6813;60.352;15.746;2022-12-18T05:43:51;2.03;;;1.50;;
13481;SDS011;6813;60.352;15.746;2022-12-18T05:46:16;1.77;;;1.40;;
13481;SDS011;6813;60.352;15.746;2022-12-18T05:48:43;2.70;;;1.50;;
13481;SDS011;6813;60.352;15.746;2022-12-18T05:51:13;2.63;;;1.63;;
13481;SDS011;6813;60.352;15.746;2022-12-18T05:53:40;2.20;;;1.80;;
13481;SDS011;6813;60.352;15.746;2022-12-18T05:56:07;2.23;;;1.67;;
13481;SDS011;6813;60.352;15.746;2022-12-18T05:58:35;13.03;;;7.60;;
13481;SDS011;6813;60.352;15.746;2022-12-18T06:03:41;2.40;;;1.80;;
13481;SDS011;6813;60.352;15.746;2022-12-18T06:06:14;3.67;;;2.30;;
13481;SDS011;6813;60.352;15.746;2022-12-18T06:08:40;3.60;;;2.23;;
13481;SDS011;6813;60.352;15.746;2022-12-18T06:11:06;1.90;;;1.70;;
13481;SDS011;6813;60.352;15.746;2022-12-18T06:13:32;3.33;;;2.30;;
13481;SDS011;6813;60.352;15.746;2022-12-18T06:15:57;2.60;;;2.13;;
13481;SDS011;6813;60.352;15.746;2022-12-18T06:18:26;2.30;;;2.10;;
13481;SDS011;6813;60.352;15.746;2022-12-18T06:20:55;3.33;;;2.20;;
13481;SDS011;6813;60.352;15.746;2022-12-18T06:23:22;2.60;;;2.20;;
13481;SDS011;6813;60.352;15.746;2022-12-18T06:25:47;4.33;;;2.67;;
13481;SDS011;6813;60.352;15.746;2022-12-18T06:28:13;2.70;;;2.20;;
13481;SDS011;6813;60.352;15.746;2022-12-18T06:30:39;13.50;;;7.20;;
13481;SDS011;6813;60.352;15.746;2022-12-18T06:33:04;3.47;;;2.33;;
13481;SDS011;6813;60.352;15.746;2022-12-18T06:35:31;2.80;;;2.13;;
13481;SDS011;6813;60.352;15.746;2022-12-18T06:37:57;2.90;;;2.20;;
13481;SDS011;6813;60.352;15.746;2022-12-18T06:40:23;2.50;;;1.97;;
13481;SDS011;6813;60.352;15.746;2022-12-18T06:42:48;2.40;;;2.20;;
13481;SDS011;6813;60.352;15.746;2022-12-18T06:45:14;2.63;;;1.90;;
13481;SDS011;6813;60.352;15.746;2022-12-18T06:47:40;3.50;;;2.63;;
13481;SDS011;6813;60.352;15.746;2022-12-18T06:50:06;2.83;;;1.90;;
13481;SDS011;6813;60.352;15.746;2022-12-18T06:52:32;1.83;;;1.70;;
13481;SDS011;6813;60.352;15.746;2022-12-18T06:54:58;1.80;;;1.50;;
13481;SDS011;6813;60.352;15.746;2022-12-18T06:57:24;3.47;;;1.97;;
13481;SDS011;6813;60.352;15.746;2022-12-18T06:59:50;1.67;;;1.57;;
13481;SDS011;6813;60.352;15.746;2022-12-18T07:02:16;2.43;;;1.90;;
13481;SDS011;6813;60.352;15.746;2022-12-18T07:04:42;3.47;;;1.80;;
13481;SDS011;6813;60.352;15.746;2022-12-18T07:07:08;2.57;;;1.80;;
13481;SDS011;6813;60.352;15.746;2022-12-18T07:09:33;3.40;;;2.37;;
13481;SDS011;6813;60.352;15.746;2022-12-18T07:11:59;3.53;;;1.80;;
13481;SDS011;6813;60.352;15.746;2022-12-18T07:14:25;2.37;;;2.07;;
13481;SDS011;6813;60.352;15.746;2022-12-18T07:16:50;3.07;;;1.80;;
13481;SDS011;6813;60.352;15.746;2022-12-18T07:19:16;3.30;;;2.53;;
13481;SDS011;6813;60.352;15.746;2022-12-18T07:21:42;6.17;;;2.13;;
13481;SDS011;6813;60.352;15.746;2022-12-18T07:24:07;2.60;;;2.17;;
13481;SDS011;6813;60.352;15.746;2022-12-18T07:26:33;3.17;;;2.47;;
13481;SDS011;6813;60.352;15.746;2022-12-18T07:28:59;5.23;;;2.30;;
13481;SDS011;6813;60.352;15.746;2022-12-18T07:31:24;2.30;;;2.10;;
13481;SDS011;6813;60.352;15.746;2022-12-18T07:33:51;3.63;;;2.47;;
13481;SDS011;6813;60.352;15.746;2022-12-18T07:36:17;4.17;;;2.57;;
13481;SDS011;6813;60.352;15.746;2022-12-18T07:38:46;4.30;;;2.30;;
13481;SDS011;6813;60.352;15.746;2022-12-18T07:41:12;4.13;;;2.10;;
13481;SDS011;6813;60.352;15.746;2022-12-18T07:43:39;3.27;;;2.00;;
13481;SDS011;6813;60.352;15.746;2022-12-18T07:46:06;2.73;;;2.10;;
13481;SDS011;6813;60.352;15.746;2022-12-18T07:48:33;3.73;;;2.13;;
13481;SDS011;6813;60.352;15.746;2022-12-18T07:50:59;3.07;;;2.37;;
13481;SDS011;6813;60.352;15.746;2022-12-18T07:53:31;2.60;;;1.90;;
13481;SDS011;6813;60.352;15.746;2022-12-18T07:55:58;3.13;;;2.00;;
13481;SDS011;6813;60.352;15.746;2022-12-18T07:58:25;2.40;;;1.60;;
13481;SDS011;6813;60.352;15.746;2022-12-18T08:00:51;1.90;;;1.70;;
13481;SDS011;6813;60.352;15.746;2022-12-18T08:03:17;3.70;;;2.00;;
13481;SDS011;6813;60.352;15.746;2022-12-18T08:05:43;1.63;;;1.53;;
13481;SDS011;6813;60.352;15.746;2022-12-18T08:08:09;1.80;;;1.70;;
13481;SDS011;6813;60.352;15.746;2022-12-18T08:10:35;2.70;;;1.80;;
13481;SDS011;6813;60.352;15.746;2022-12-18T08:13:00;1.93;;;1.73;;
13481;SDS011;6813;60.352;15.746;2022-12-18T08:15:26;3.77;;;1.57;;
13481;SDS011;6813;60.352;15.746;2022-12-18T08:17:52;3.67;;;1.80;;
13481;SDS011;6813;60.352;15.746;2022-12-18T08:20:21;1.50;;;1.40;;
13481;SDS011;6813;60.352;15.746;2022-12-18T08:22:46;1.43;;;1.33;;
13481;SDS011;6813;60.352;15.746;2022-12-18T08:25:12;1.93;;;1.43;;
13481;SDS011;6813;60.352;15.746;2022-12-18T08:27:37;3.10;;;1.20;;
13481;SDS011;6813;60.352;15.746;2022-12-18T08:30:03;1.80;;;1.10;;
13481;SDS011;6813;60.352;15.746;2022-12-18T08:32:30;1.53;;;1.43;;
13481;SDS011;6813;60.352;15.746;2022-12-18T08:34:57;1.63;;;1.53;;
13481;SDS011;6813;60.352;15.746;2022-12-18T08:37:23;2.17;;;1.97;;
13481;SDS011;6813;60.352;15.746;2022-12-18T08:39:49;2.30;;;1.40;;
13481;SDS011;6813;60.352;15.746;2022-12-18T08:42:15;1.87;;;1.27;;
13481;SDS011;6813;60.352;15.746;2022-12-18T08:44:59;1.40;;;1.30;;
13481;SDS011;6813;60.352;15.746;2022-12-18T08:47:24;1.13;;;1.03;;
13481;SDS011;6813;60.352;15.746;2022-12-18T08:49:51;1.60;;;1.33;;
13481;SDS011;6813;60.352;15.746;2022-12-18T08:52:16;2.50;;;1.80;;
13481;SDS011;6813;60.352;15.746;2022-12-18T08:54:42;2.27;;;1.93;;
13481;SDS011;6813;60.352;15.746;2022-12-18T08:57:08;1.73;;;1.37;;
13481;SDS011;6813;60.352;15.746;2022-12-18T08:59:33;2.73;;;1.73;;
13481;SDS011;6813;60.352;15.746;2022-12-18T09:01:59;1.70;;;1.50;;
13481;SDS011;6813;60.352;15.746;2022-12-18T09:04:25;1.77;;;1.47;;
13481;SDS011;6813;60.352;15.746;2022-12-18T09:06:50;1.47;;;1.07;;
13481;SDS011;6813;60.352;15.746;2022-12-18T09:09:16;3.03;;;1.60;;
13481;SDS011;6813;60.352;15.746;2022-12-18T09:11:42;1.87;;;1.50;;
13481;SDS011;6813;60.352;15.746;2022-12-18T09:14:08;2.30;;;1.70;;
13481;SDS011;6813;60.352;15.746;2022-12-18T09:16:34;1.97;;;1.60;;
13481;SDS011;6813;60.352;15.746;2022-12-18T09:19:01;2.93;;;1.70;;
13481;SDS011;6813;60.352;15.746;2022-12-18T09:21:29;3.07;;;1.97;;
13481;SDS011;6813;60.352;15.746;2022-12-18T09:23:57;3.20;;;1.80;;
13481;SDS011;6813;60.352;15.746;2022-12-18T09:26:24;1.90;;;1.30;;
13481;SDS011;6813;60.352;15.746;2022-12-18T09:28:50;2.97;;;1.60;;
13481;SDS011;6813;60.352;15.746;2022-12-18T09:31:17;2.87;;;1.50;;
13481;SDS011;6813;60.352;15.746;2022-12-18T09:33:45;3.77;;;2.50;;
13481;SDS011;6813;60.352;15.746;2022-12-18T09:36:12;2.37;;;1.47;;
13481;SDS011;6813;60.352;15.746;2022-12-18T09:38:39;1.67;;;1.40;;
13481;SDS011;6813;60.352;15.746;2022-12-18T09:41:06;2.10;;;1.30;;
13481;SDS011;6813;60.352;15.746;2022-12-18T09:43:48;1.40;;;1.10;;
13481;SDS011;6813;60.352;15.746;2022-12-18T09:46:36;2.20;;;1.40;;
13481;SDS011;6813;60.352;15.746;2022-12-18T09:49:06;2.33;;;1.40;;
13481;SDS011;6813;60.352;15.746;2022-12-18T09:51:40;1.70;;;1.20;;
13481;SDS011;6813;60.352;15.746;2022-12-18T09:54:23;2.33;;;1.27;;
13481;SDS011;6813;60.352;15.746;2022-12-18T09:56:54;1.57;;;1.10;;
13481;SDS011;6813;60.352;15.746;2022-12-18T09:59:21;3.10;;;1.73;;
13481;SDS011;6813;60.352;15.746;2022-12-18T10:01:51;1.80;;;1.60;;
13481;SDS011;6813;60.352;15.746;2022-12-18T10:04:17;3.53;;;1.40;;
13481;SDS011;6813;60.352;15.746;2022-12-18T10:09:41;1.90;;;1.10;;
13481;SDS011;6813;60.352;15.746;2022-12-18T10:13:02;1.43;;;1.20;;
13481;SDS011;6813;60.352;15.746;2022-12-18T10:15:24;2.30;;;1.30;;
13481;SDS011;6813;60.352;15.746;2022-12-18T10:23:26;1.80;;;1.20;;
13481;SDS011;6813;60.352;15.746;2022-12-18T10:25:59;2.67;;;1.20;;
13481;SDS011;6813;60.352;15.746;2022-12-18T10:28:32;1.43;;;1.10;;
13481;SDS011;6813;60.352;15.746;2022-12-18T10:31:00;2.63;;;1.50;;
13481;SDS011;6813;60.352;15.746;2022-12-18T10:33:30;3.17;;;1.37;;
13481;SDS011;6813;60.352;15.746;2022-12-18T10:35:57;2.67;;;1.63;;
13481;SDS011;6813;60.352;15.746;2022-12-18T10:38:26;1.67;;;1.50;;
13481;SDS011;6813;60.352;15.746;2022-12-18T10:41:03;1.83;;;1.30;;
13481;SDS011;6813;60.352;15.746;2022-12-18T10:43:31;4.50;;;1.60;;
13481;SDS011;6813;60.352;15.746;2022-12-18T10:51:27;2.93;;;1.43;;
13481;SDS011;6813;60.352;15.746;2022-12-18T10:56:32;2.57;;;1.07;;
13481;SDS011;6813;60.352;15.746;2022-12-18T10:59:03;1.43;;;1.03;;
13481;SDS011;6813;60.352;15.746;2022-12-18T11:04:13;5.53;;;2.57;;
13481;SDS011;6813;60.352;15.746;2022-12-18T11:09:38;1.20;;;0.90;;
13481;SDS011;6813;60.352;15.746;2022-12-18T11:17:18;2.33;;;1.07;;
13481;SDS011;6813;60.352;15.746;2022-12-18T11:19:53;3.40;;;1.20;;
13481;SDS011;6813;60.352;15.746;2022-12-18T11:22:23;3.40;;;1.10;;
13481;SDS011;6813;60.352;15.746;2022-12-18T11:24:58;2.23;;;1.17;;
13481;SDS011;6813;60.352;15.746;2022-12-18T11:27:26;3.10;;;1.03;;
13481;SDS011;6813;60.352;15.746;2022-12-18T11:30:06;2.83;;;0.90;;
13481;SDS011;6813;60.352;15.746;2022-12-18T11:33:09;2.60;;;1.03;;
13481;SDS011;6813;60.352;15.746;2022-12-18T11:35:56;1.80;;;0.70;;
13481;SDS011;6813;60.352;15.746;2022-12-18T11:38:35;1.57;;;0.80;;
13481;SDS011;6813;60.352;15.746;2022-12-18T11:41:13;1.83;;;0.97;;
13481;SDS011;6813;60.352;15.746;2022-12-18T11:44:12;1.80;;;1.10;;
13481;SDS011;6813;60.352;15.746;2022-12-18T11:47:10;3.63;;;1.37;;
13481;SDS011;6813;60.352;15.746;2022-12-18T11:49:53;2.77;;;0.90;;
13481;SDS011;6813;60.352;15.746;2022-12-18T11:52:31;3.80;;;0.83;;
13481;SDS011;6813;60.352;15.746;2022-12-18T11:55:13;1.90;;;1.03;;
13481;SDS011;6813;60.352;15.746;2022-12-18T12:00:40;3.53;;;1.00;;
13481;SDS011;6813;60.352;15.746;2022-12-18T12:03:22;6.13;;;1.00;;
13481;SDS011;6813;60.352;15.746;2022-12-18T12:16:53;3.73;;;1.07;;
13481;SDS011;6813;60.352;15.746;2022-12-18T12:22:37;2.83;;;0.87;;
13481;SDS011;6813;60.352;15.746;2022-12-18T12:31:00;5.60;;;1.43;;
13481;SDS011;6813;60.352;15.746;2022-12-18T12:36:14;3.53;;;1.17;;
13481;SDS011;6813;60.352;15.746;2022-12-18T12:39:23;5.13;;;1.70;;
13481;SDS011;6813;60.352;15.746;2022-12-18T12:41:55;2.27;;;0.90;;
13481;SDS011;6813;60.352;15.746;2022-12-18T12:44:42;1.37;;;0.80;;
13481;SDS011;6813;60.352;15.746;2022-12-18T12:47:25;2.80;;;1.03;;
13481;SDS011;6813;60.352;15.746;2022-12-18T12:49:56;3.13;;;0.80;;
13481;SDS011;6813;60.352;15.746;2022-12-18T12:52:30;3.63;;;1.00;;
13481;SDS011;6813;60.352;15.746;2022-12-18T12:55:03;3.00;;;1.03;;
13481;SDS011;6813;60.352;15.746;2022-12-18T12:57:43;3.30;;;1.00;;
13481;SDS011;6813;60.352;15.746;2022-12-18T13:00:17;3.27;;;1.10;;
13481;SDS011;6813;60.352;15.746;2022-12-18T13:12:58;2.90;;;1.40;;
13481;SDS011;6813;60.352;15.746;2022-12-18T13:18:05;3.53;;;1.30;;
13481;SDS011;6813;60.352;15.746;2022-12-18T13:20:47;2.23;;;1.00;;
13481;SDS011;6813;60.352;15.746;2022-12-18T13:25:49;1.67;;;0.70;;
13481;SDS011;6813;60.352;15.746;2022-12-18T13:28:18;1.27;;;0.60;;
13481;SDS011;6813;60.352;15.746;2022-12-18T13:31:08;3.27;;;1.00;;
13481;SDS011;6813;60.352;15.746;2022-12-18T13:38:38;1.80;;;0.87;;
13481;SDS011;6813;60.352;15.746;2022-12-18T13:43:34;1.33;;;0.73;;
13481;SDS011;6813;60.352;15.746;2022-12-18T13:48:32;1.87;;;0.80;;
13481;SDS011;6813;60.352;15.746;2022-12-18T13:51:07;4.33;;;0.83;;
13481;SDS011;6813;60.352;15.746;2022-12-18T13:53:36;0.80;;;0.60;;
13481;SDS011;6813;60.352;15.746;2022-12-18T13:56:08;3.17;;;0.93;;
13481;SDS011;6813;60.352;15.746;2022-12-18T13:58:34;4.00;;;1.10;;
13481;SDS011;6813;60.352;15.746;2022-12-18T14:00:59;2.43;;;1.00;;
13481;SDS011;6813;60.352;15.746;2022-12-18T14:03:27;2.63;;;0.60;;
13481;SDS011;6813;60.352;15.746;2022-12-18T14:05:56;4.97;;;1.00;;
13481;SDS011;6813;60.352;15.746;2022-12-18T14:08:25;3.00;;;0.93;;
13481;SDS011;6813;60.352;15.746;2022-12-18T14:10:57;1.77;;;0.63;;
13481;SDS011;6813;60.352;15.746;2022-12-18T14:13:24;3.57;;;0.93;;
13481;SDS011;6813;60.352;15.746;2022-12-18T14:15:54;4.57;;;0.83;;
13481;SDS011;6813;60.352;15.746;2022-12-18T14:18:25;3.73;;;1.00;;
13481;SDS011;6813;60.352;15.746;2022-12-18T14:20:52;1.50;;;0.80;;
13481;SDS011;6813;60.352;15.746;2022-12-18T14:23:35;4.27;;;1.00;;
13481;SDS011;6813;60.352;15.746;2022-12-18T14:28:54;2.50;;;1.00;;
13481;SDS011;6813;60.352;15.746;2022-12-18T14:31:24;4.40;;;0.90;;
13481;SDS011;6813;60.352;15.746;2022-12-18T14:33:52;2.10;;;0.80;;
13481;SDS011;6813;60.352;15.746;2022-12-18T14:36:22;2.57;;;0.80;;
13481;SDS011;6813;60.352;15.746;2022-12-18T14:38:53;2.20;;;0.90;;
13481;SDS011;6813;60.352;15.746;2022-12-18T14:41:21;1.93;;;0.90;;
13481;SDS011;6813;60.352;15.746;2022-12-18T14:43:48;2.70;;;1.13;;
13481;SDS011;6813;60.352;15.746;2022-12-18T14:46:33;1.00;;;0.60;;
13481;SDS011;6813;60.352;15.746;2022-12-18T14:49:21;1.87;;;0.80;;
13481;SDS011;6813;60.352;15.746;2022-12-18T14:51:49;2.07;;;0.70;;
13481;SDS011;6813;60.352;15.746;2022-12-18T14:54:18;3.77;;;1.20;;
13481;SDS011;6813;60.352;15.746;2022-12-18T14:56:51;2.90;;;0.73;;
13481;SDS011;6813;60.352;15.746;2022-12-18T14:59:24;2.60;;;1.20;;
13481;SDS011;6813;60.352;15.746;2022-12-18T15:01:59;1.50;;;0.70;;
13481;SDS011;6813;60.352;15.746;2022-12-18T15:04:29;2.40;;;1.00;;
13481;SDS011;6813;60.352;15.746;2022-12-18T15:12:28;1.10;;;0.90;;
13481;SDS011;6813;60.352;15.746;2022-12-18T15:14:59;1.87;;;0.70;;
13481;SDS011;6813;60.352;15.746;2022-12-18T15:17:25;2.33;;;0.63;;
13481;SDS011;6813;60.352;15.746;2022-12-18T15:19:52;1.30;;;0.70;;
13481;SDS011;6813;60.352;15.746;2022-12-18T15:24:58;3.03;;;0.80;;
13481;SDS011;6813;60.352;15.746;2022-12-18T15:29:59;1.77;;;0.70;;
13481;SDS011;6813;60.352;15.746;2022-12-18T15:32:37;2.17;;;0.93;;
13481;SDS011;6813;60.352;15.746;2022-12-18T15:37:40;1.90;;;0.73;;
13481;SDS011;6813;60.352;15.746;2022-12-18T15:40:07;1.00;;;0.43;;
13481;SDS011;6813;60.352;15.746;2022-12-18T15:42:37;1.30;;;0.87;;
13481;SDS011;6813;60.352;15.746;2022-12-18T15:45:21;2.43;;;0.90;;
13481;SDS011;6813;60.352;15.746;2022-12-18T15:47:47;1.80;;;0.70;;
13481;SDS011;6813;60.352;15.746;2022-12-18T15:50:12;3.07;;;1.00;;
13481;SDS011;6813;60.352;15.746;2022-12-18T15:52:45;1.63;;;0.50;;
13481;SDS011;6813;60.352;15.746;2022-12-18T15:55:16;1.43;;;0.50;;
13481;SDS011;6813;60.352;15.746;2022-12-18T15:58:03;2.47;;;0.90;;
13481;SDS011;6813;60.352;15.746;2022-12-18T16:00:29;2.23;;;0.50;;
13481;SDS011;6813;60.352;15.746;2022-12-18T16:02:55;1.37;;;0.60;;
13481;SDS011;6813;60.352;15.746;2022-12-18T16:05:20;1.33;;;0.40;;
13481;SDS011;6813;60.352;15.746;2022-12-18T16:07:48;2.10;;;0.73;;
13481;SDS011;6813;60.352;15.746;2022-12-18T16:10:13;1.07;;;0.90;;
13481;SDS011;6813;60.352;15.746;2022-12-18T16:12:40;1.80;;;0.60;;
13481;SDS011;6813;60.352;15.746;2022-12-18T16:15:07;2.50;;;0.50;;
13481;SDS011;6813;60.352;15.746;2022-12-18T16:17:35;2.33;;;0.73;;
13481;SDS011;6813;60.352;15.746;2022-12-18T16:20:00;3.40;;;0.50;;
13481;SDS011;6813;60.352;15.746;2022-12-18T16:22:28;1.30;;;0.80;;
13481;SDS011;6813;60.352;15.746;2022-12-18T16:24:55;0.50;;;0.43;;
13481;SDS011;6813;60.352;15.746;2022-12-18T16:27:21;1.30;;;0.70;;
13481;SDS011;6813;60.352;15.746;2022-12-18T16:29:47;1.50;;;0.60;;
13481;SDS011;6813;60.352;15.746;2022-12-18T16:32:15;2.77;;;0.70;;
13481;SDS011;6813;60.352;15.746;2022-12-18T16:34:42;2.53;;;0.67;;
13481;SDS011;6813;60.352;15.746;2022-12-18T16:37:10;1.77;;;0.80;;
13481;SDS011;6813;60.352;15.746;2022-12-18T16:39:37;2.00;;;0.80;;
13481;SDS011;6813;60.352;15.746;2022-12-18T16:42:21;1.33;;;0.80;;
13481;SDS011;6813;60.352;15.746;2022-12-18T16:44:49;3.27;;;0.60;;
13481;SDS011;6813;60.352;15.746;2022-12-18T16:47:15;2.03;;;0.80;;
13481;SDS011;6813;60.352;15.746;2022-12-18T16:49:41;2.70;;;0.70;;
13481;SDS011;6813;60.352;15.746;2022-12-18T16:52:09;1.10;;;0.80;;
13481;SDS011;6813;60.352;15.746;2022-12-18T16:54:35;1.60;;;0.70;;